sensor_id;sensor_type;location;lat;lon;timestamp;temperature;humidity
61374;DHT22;47242;48.158;-1.586;2023-12-20T05:30:13;7.50;84.30
61374;DHT22;47242;48.158;-1.586;2023-12-20T05:32:39;7.40;84.40
61374;DHT22;47242;48.158;-1.586;2023-12-20T05:35:05;7.30;84.50
61374;DHT22;47242;48.158;-1.586;2023-12-20T05:37:30;7.30;84.70
61374;DHT22;47242;48.158;-1.586;2023-12-20T05:39:56;7.30;84.70
61374;DHT22;47242;48.158;-1.586;2023-12-20T05:42:22;7.30;84.50
61374;DHT22;47242;48.158;-1.586;2023-12-20T05:44:47;7.20;84.70
61374;DHT22;47242;48.158;-1.586;2023-12-20T05:47:13;7.20;84.80
61374;DHT22;47242;48.158;-1.586;2023-12-20T05:49:38;7.20;84.80
61374;DHT22;47242;48.158;-1.586;2023-12-20T05:52:04;7.20;84.70
61374;DHT22;47242;48.158;-1.586;2023-12-20T05:54:30;7.20;84.80
61374;DHT22;47242;48.158;-1.586;2023-12-20T05:56:56;7.10;84.80
61374;DHT22;47242;48.158;-1.586;2023-12-20T05:59:21;7.10;84.90
61374;DHT22;47242;48.158;-1.586;2023-12-20T06:01:47;7.10;84.90
61374;DHT22;47242;48.158;-1.586;2023-12-20T06:04:13;7.10;84.80
61374;DHT22;47242;48.158;-1.586;2023-12-20T06:06:42;7.10;84.80
61374;DHT22;47242;48.158;-1.586;2023-12-20T06:09:08;7.10;84.90
61374;DHT22;47242;48.158;-1.586;2023-12-20T06:11:34;7.20;84.90
61374;DHT22;47242;48.158;-1.586;2023-12-20T06:14:00;7.20;85.00
61374;DHT22;47242;48.158;-1.586;2023-12-20T06:16:25;7.20;85.00
61374;DHT22;47242;48.158;-1.586;2023-12-20T06:18:51;7.30;84.90
61374;DHT22;47242;48.158;-1.586;2023-12-20T06:21:16;7.30;84.80
61374;DHT22;47242;48.158;-1.586;2023-12-20T06:23:42;7.40;84.90
61374;DHT22;47242;48.158;-1.586;2023-12-20T06:26:08;7.40;84.80
61374;DHT22;47242;48.158;-1.586;2023-12-20T06:28:33;7.50;84.90
61374;DHT22;47242;48.158;-1.586;2023-12-20T06:30:59;7.50;84.90
61374;DHT22;47242;48.158;-1.586;2023-12-20T06:33:26;7.60;84.80
61374;DHT22;47242;48.158;-1.586;2023-12-20T06:35:51;7.70;84.90
61374;DHT22;47242;48.158;-1.586;2023-12-20T06:38:18;7.70;84.90
61374;DHT22;47242;48.158;-1.586;2023-12-20T06:40:44;7.70;85.00
61374;DHT22;47242;48.158;-1.586;2023-12-20T06:43:10;7.70;84.80
61374;DHT22;47242;48.158;-1.586;2023-12-20T06:45:35;7.60;84.80
61374;DHT22;47242;48.158;-1.586;2023-12-20T06:48:01;7.60;84.90
61374;DHT22;47242;48.158;-1.586;2023-12-20T06:50:27;7.50;84.80
61374;DHT22;47242;48.158;-1.586;2023-12-20T06:52:53;7.50;84.90
61374;DHT22;47242;48.158;-1.586;2023-12-20T06:55:18;7.50;84.90
61374;DHT22;47242;48.158;-1.586;2023-12-20T06:57:44;7.40;85.00
61374;DHT22;47242;48.158;-1.586;2023-12-20T07:00:11;7.40;84.80
61374;DHT22;47242;48.158;-1.586;2023-12-20T07:02:37;7.30;85.20
61374;DHT22;47242;48.158;-1.586;2023-12-20T07:05:03;7.20;85.20
61374;DHT22;47242;48.158;-1.586;2023-12-20T07:07:29;7.30;85.40
61374;DHT22;47242;48.158;-1.586;2023-12-20T07:09:55;7.20;85.40
61374;DHT22;47242;48.158;-1.586;2023-12-20T07:12:21;7.20;85.50
61374;DHT22;47242;48.158;-1.586;2023-12-20T07:14:46;7.10;85.60
61374;DHT22;47242;48.158;-1.586;2023-12-20T07:17:12;7.10;85.60
61374;DHT22;47242;48.158;-1.586;2023-12-20T07:19:40;7.10;85.70
61374;DHT22;47242;48.158;-1.586;2023-12-20T07:22:06;7.10;85.80
61374;DHT22;47242;48.158;-1.586;2023-12-20T07:24:32;7.10;85.80
61374;DHT22;47242;48.158;-1.586;2023-12-20T07:26:58;7.10;85.70
61374;DHT22;47242;48.158;-1.586;2023-12-20T07:29:25;7.00;85.60
61374;DHT22;47242;48.158;-1.586;2023-12-20T07:31:50;7.10;85.90
61374;DHT22;47242;48.158;-1.586;2023-12-20T07:34:17;7.00;85.90
61374;DHT22;47242;48.158;-1.586;2023-12-20T07:36:43;7.00;85.60
61374;DHT22;47242;48.158;-1.586;2023-12-20T07:39:08;7.00;85.80
61374;DHT22;47242;48.158;-1.586;2023-12-20T07:41:34;7.00;85.90
61374;DHT22;47242;48.158;-1.586;2023-12-20T07:44:00;7.00;85.90
61374;DHT22;47242;48.158;-1.586;2023-12-20T07:46:25;7.00;85.90
61374;DHT22;47242;48.158;-1.586;2023-12-20T07:48:51;7.10;85.90
61374;DHT22;47242;48.158;-1.586;2023-12-20T07:51:16;7.00;85.90
61374;DHT22;47242;48.158;-1.586;2023-12-20T07:53:42;7.10;86.00
61374;DHT22;47242;48.158;-1.586;2023-12-20T07:56:15;7.20;86.00
61374;DHT22;47242;48.158;-1.586;2023-12-20T07:58:41;7.10;86.00
61374;DHT22;47242;48.158;-1.586;2023-12-20T08:01:07;7.20;86.00
61374;DHT22;47242;48.158;-1.586;2023-12-20T08:03:32;7.20;86.00
61374;DHT22;47242;48.158;-1.586;2023-12-20T08:05:58;7.20;85.80
61374;DHT22;47242;48.158;-1.586;2023-12-20T08:08:25;7.20;85.80
61374;DHT22;47242;48.158;-1.586;2023-12-20T08:10:50;7.30;85.80
61374;DHT22;47242;48.158;-1.586;2023-12-20T08:13:16;7.40;85.70
61374;DHT22;47242;48.158;-1.586;2023-12-20T08:15:42;7.30;85.60
61374;DHT22;47242;48.158;-1.586;2023-12-20T08:18:07;7.30;85.80
61374;DHT22;47242;48.158;-1.586;2023-12-20T08:20:33;7.20;85.80
61374;DHT22;47242;48.158;-1.586;2023-12-20T08:22:58;7.30;85.90
61374;DHT22;47242;48.158;-1.586;2023-12-20T08:25:24;7.30;85.80
61374;DHT22;47242;48.158;-1.586;2023-12-20T08:27:50;7.40;85.70
61374;DHT22;47242;48.158;-1.586;2023-12-20T08:30:15;7.50;85.60
61374;DHT22;47242;48.158;-1.586;2023-12-20T08:32:46;7.60;85.60
61374;DHT22;47242;48.158;-1.586;2023-12-20T08:35:11;7.70;85.50
61374;DHT22;47242;48.158;-1.586;2023-12-20T08:37:37;7.80;85.50
61374;DHT22;47242;48.158;-1.586;2023-12-20T08:40:03;7.80;85.50
61374;DHT22;47242;48.158;-1.586;2023-12-20T08:42:28;7.80;85.40
61374;DHT22;47242;48.158;-1.586;2023-12-20T08:44:57;7.80;85.50
61374;DHT22;47242;48.158;-1.586;2023-12-20T08:47:24;7.80;85.50
61374;DHT22;47242;48.158;-1.586;2023-12-20T08:49:49;7.70;85.60
61374;DHT22;47242;48.158;-1.586;2023-12-20T08:52:15;7.70;85.60
61374;DHT22;47242;48.158;-1.586;2023-12-20T08:54:41;7.60;85.60
61374;DHT22;47242;48.158;-1.586;2023-12-20T08:57:06;7.60;85.80
61374;DHT22;47242;48.158;-1.586;2023-12-20T08:59:32;7.60;85.80
61374;DHT22;47242;48.158;-1.586;2023-12-20T09:01:58;7.60;85.90
61374;DHT22;47242;48.158;-1.586;2023-12-20T09:04:24;7.70;85.80
61374;DHT22;47242;48.158;-1.586;2023-12-20T09:06:50;7.80;85.80
61374;DHT22;47242;48.158;-1.586;2023-12-20T09:09:16;7.90;85.80
61374;DHT22;47242;48.158;-1.586;2023-12-20T09:11:42;7.90;85.70
61374;DHT22;47242;48.158;-1.586;2023-12-20T09:14:07;8.00;85.60
61374;DHT22;47242;48.158;-1.586;2023-12-20T09:16:33;8.10;85.50
61374;DHT22;47242;48.158;-1.586;2023-12-20T09:18:59;8.20;85.50
61374;DHT22;47242;48.158;-1.586;2023-12-20T09:21:24;8.30;85.40
61374;DHT22;47242;48.158;-1.586;2023-12-20T09:23:51;8.40;85.30
61374;DHT22;47242;48.158;-1.586;2023-12-20T09:26:16;8.40;85.20
61374;DHT22;47242;48.158;-1.586;2023-12-20T09:28:43;8.30;85.00
61374;DHT22;47242;48.158;-1.586;2023-12-20T09:31:09;8.20;85.10
61374;DHT22;47242;48.158;-1.586;2023-12-20T09:33:34;8.20;85.20
61374;DHT22;47242;48.158;-1.586;2023-12-20T09:36:00;8.30;85.10
61374;DHT22;47242;48.158;-1.586;2023-12-20T09:38:26;8.30;85.20
61374;DHT22;47242;48.158;-1.586;2023-12-20T09:40:52;8.30;85.10
61374;DHT22;47242;48.158;-1.586;2023-12-20T09:43:20;8.40;85.20
61374;DHT22;47242;48.158;-1.586;2023-12-20T09:45:47;8.50;85.10
61374;DHT22;47242;48.158;-1.586;2023-12-20T09:48:17;8.50;85.10
61374;DHT22;47242;48.158;-1.586;2023-12-20T09:50:44;8.50;85.00
61374;DHT22;47242;48.158;-1.586;2023-12-20T09:53:10;8.60;85.00
61374;DHT22;47242;48.158;-1.586;2023-12-20T09:55:37;8.70;84.90
61374;DHT22;47242;48.158;-1.586;2023-12-20T09:58:03;8.70;84.90
61374;DHT22;47242;48.158;-1.586;2023-12-20T10:00:29;8.80;84.90
61374;DHT22;47242;48.158;-1.586;2023-12-20T10:02:59;8.90;84.60
61374;DHT22;47242;48.158;-1.586;2023-12-20T10:05:30;9.00;84.60
61374;DHT22;47242;48.158;-1.586;2023-12-20T10:07:56;9.20;84.50
61374;DHT22;47242;48.158;-1.586;2023-12-20T10:10:22;9.20;84.50
61374;DHT22;47242;48.158;-1.586;2023-12-20T10:13:02;9.20;84.20
61374;DHT22;47242;48.158;-1.586;2023-12-20T10:15:28;9.10;84.20
61374;DHT22;47242;48.158;-1.586;2023-12-20T10:17:54;9.10;84.20
61374;DHT22;47242;48.158;-1.586;2023-12-20T10:20:20;9.20;84.30
61374;DHT22;47242;48.158;-1.586;2023-12-20T10:22:46;9.20;84.40
61374;DHT22;47242;48.158;-1.586;2023-12-20T10:25:12;9.30;84.20
61374;DHT22;47242;48.158;-1.586;2023-12-20T10:27:38;9.40;84.30
61374;DHT22;47242;48.158;-1.586;2023-12-20T10:30:04;9.50;84.20
61374;DHT22;47242;48.158;-1.586;2023-12-20T10:32:30;9.50;84.10
61374;DHT22;47242;48.158;-1.586;2023-12-20T10:34:56;9.50;84.20
61374;DHT22;47242;48.158;-1.586;2023-12-20T10:37:22;9.60;83.90
61374;DHT22;47242;48.158;-1.586;2023-12-20T10:39:53;9.60;83.90
61374;DHT22;47242;48.158;-1.586;2023-12-20T10:42:25;9.70;83.90
61374;DHT22;47242;48.158;-1.586;2023-12-20T10:44:51;9.70;83.80
61374;DHT22;47242;48.158;-1.586;2023-12-20T10:47:19;9.80;83.80
61374;DHT22;47242;48.158;-1.586;2023-12-20T10:49:46;9.90;83.60
61374;DHT22;47242;48.158;-1.586;2023-12-20T10:52:12;9.90;83.50
61374;DHT22;47242;48.158;-1.586;2023-12-20T10:54:41;10.00;83.40
61374;DHT22;47242;48.158;-1.586;2023-12-20T10:57:07;10.10;83.40
61374;DHT22;47242;48.158;-1.586;2023-12-20T10:59:34;10.00;83.40
61374;DHT22;47242;48.158;-1.586;2023-12-20T11:02:04;9.90;83.60
61374;DHT22;47242;48.158;-1.586;2023-12-20T11:04:55;9.80;83.70
61374;DHT22;47242;48.158;-1.586;2023-12-20T11:07:39;9.90;83.80
61374;DHT22;47242;48.158;-1.586;2023-12-20T11:10:30;10.00;83.70
61374;DHT22;47242;48.158;-1.586;2023-12-20T11:13:10;10.20;83.60
61374;DHT22;47242;48.158;-1.586;2023-12-20T11:15:37;10.30;83.60
61374;DHT22;47242;48.158;-1.586;2023-12-20T11:18:04;10.30;83.30
61374;DHT22;47242;48.158;-1.586;2023-12-20T11:20:39;10.40;83.30
61374;DHT22;47242;48.158;-1.586;2023-12-20T11:23:05;10.50;83.20
61374;DHT22;47242;48.158;-1.586;2023-12-20T11:25:52;10.50;83.10
61374;DHT22;47242;48.158;-1.586;2023-12-20T11:28:23;10.60;83.00
61374;DHT22;47242;48.158;-1.586;2023-12-20T11:30:54;10.70;83.00
61374;DHT22;47242;48.158;-1.586;2023-12-20T11:33:29;10.70;83.00
61374;DHT22;47242;48.158;-1.586;2023-12-20T11:35:59;10.80;82.80
61374;DHT22;47242;48.158;-1.586;2023-12-20T11:38:25;10.90;82.60
61374;DHT22;47242;48.158;-1.586;2023-12-20T11:40:54;10.90;82.20
61374;DHT22;47242;48.158;-1.586;2023-12-20T11:43:52;10.90;82.20
61374;DHT22;47242;48.158;-1.586;2023-12-20T11:46:18;11.00;82.30
61374;DHT22;47242;48.158;-1.586;2023-12-20T11:48:44;11.00;82.10
61374;DHT22;47242;48.158;-1.586;2023-12-20T11:51:14;11.10;82.20
61374;DHT22;47242;48.158;-1.586;2023-12-20T11:53:40;11.10;82.20
61374;DHT22;47242;48.158;-1.586;2023-12-20T11:56:06;11.10;82.00
61374;DHT22;47242;48.158;-1.586;2023-12-20T11:58:36;11.20;82.20
61374;DHT22;47242;48.158;-1.586;2023-12-20T12:01:02;11.20;82.10
61374;DHT22;47242;48.158;-1.586;2023-12-20T12:03:28;11.20;81.90
61374;DHT22;47242;48.158;-1.586;2023-12-20T12:05:53;11.30;81.80
61374;DHT22;47242;48.158;-1.586;2023-12-20T12:08:19;11.40;81.90
61374;DHT22;47242;48.158;-1.586;2023-12-20T12:10:45;11.60;81.60
61374;DHT22;47242;48.158;-1.586;2023-12-20T12:13:11;11.80;81.40
61374;DHT22;47242;48.158;-1.586;2023-12-20T12:15:37;11.80;80.40
61374;DHT22;47242;48.158;-1.586;2023-12-20T12:18:03;11.80;80.10
61374;DHT22;47242;48.158;-1.586;2023-12-20T12:20:30;11.80;80.50
61374;DHT22;47242;48.158;-1.586;2023-12-20T12:23:01;11.80;80.70
61374;DHT22;47242;48.158;-1.586;2023-12-20T12:25:28;11.90;80.70
61374;DHT22;47242;48.158;-1.586;2023-12-20T12:27:54;11.90;80.50
61374;DHT22;47242;48.158;-1.586;2023-12-20T12:30:19;12.00;80.40
61374;DHT22;47242;48.158;-1.586;2023-12-20T12:32:46;12.10;80.00
61374;DHT22;47242;48.158;-1.586;2023-12-20T12:35:12;12.20;79.90
61374;DHT22;47242;48.158;-1.586;2023-12-20T12:37:38;12.20;79.90
61374;DHT22;47242;48.158;-1.586;2023-12-20T12:42:36;12.10;79.60
61374;DHT22;47242;48.158;-1.586;2023-12-20T12:45:01;12.10;79.80
61374;DHT22;47242;48.158;-1.586;2023-12-20T12:47:27;12.00;79.90
61374;DHT22;47242;48.158;-1.586;2023-12-20T12:49:53;12.00;80.10
61374;DHT22;47242;48.158;-1.586;2023-12-20T12:52:19;11.90;80.60
61374;DHT22;47242;48.158;-1.586;2023-12-20T12:54:45;11.80;81.40
61374;DHT22;47242;48.158;-1.586;2023-12-20T12:57:13;11.70;82.10
61374;DHT22;47242;48.158;-1.586;2023-12-20T12:59:39;11.50;82.60
61374;DHT22;47242;48.158;-1.586;2023-12-20T13:02:06;11.50;83.00
61374;DHT22;47242;48.158;-1.586;2023-12-20T13:04:32;11.50;83.40
61374;DHT22;47242;48.158;-1.586;2023-12-20T13:06:58;11.50;83.60
61374;DHT22;47242;48.158;-1.586;2023-12-20T13:09:23;11.50;84.00
61374;DHT22;47242;48.158;-1.586;2023-12-20T13:11:49;11.50;83.80
61374;DHT22;47242;48.158;-1.586;2023-12-20T13:14:15;11.50;83.80
61374;DHT22;47242;48.158;-1.586;2023-12-20T13:16:42;11.50;83.70
61374;DHT22;47242;48.158;-1.586;2023-12-20T13:19:08;11.50;83.70
61374;DHT22;47242;48.158;-1.586;2023-12-20T13:21:33;11.50;83.70
61374;DHT22;47242;48.158;-1.586;2023-12-20T13:23:59;11.40;83.80
61374;DHT22;47242;48.158;-1.586;2023-12-20T13:26:25;11.50;83.70
61374;DHT22;47242;48.158;-1.586;2023-12-20T13:28:50;11.50;83.70
61374;DHT22;47242;48.158;-1.586;2023-12-20T13:31:16;11.50;83.70
61374;DHT22;47242;48.158;-1.586;2023-12-20T13:33:41;11.50;83.60
61374;DHT22;47242;48.158;-1.586;2023-12-20T13:36:07;11.50;83.80
61374;DHT22;47242;48.158;-1.586;2023-12-20T13:38:34;11.50;83.70
61374;DHT22;47242;48.158;-1.586;2023-12-20T13:40:59;11.60;83.90
61374;DHT22;47242;48.158;-1.586;2023-12-20T13:43:25;11.70;83.80
61374;DHT22;47242;48.158;-1.586;2023-12-20T13:45:50;11.70;83.70
61374;DHT22;47242;48.158;-1.586;2023-12-20T13:48:18;11.80;83.60
61374;DHT22;47242;48.158;-1.586;2023-12-20T13:50:43;11.90;83.60
61374;DHT22;47242;48.158;-1.586;2023-12-20T13:53:09;11.80;83.50
61374;DHT22;47242;48.158;-1.586;2023-12-20T13:55:35;11.80;83.60
61374;DHT22;47242;48.158;-1.586;2023-12-20T13:58:00;11.90;83.80
61374;DHT22;47242;48.158;-1.586;2023-12-20T14:00:26;11.90;83.70
61374;DHT22;47242;48.158;-1.586;2023-12-20T14:02:51;11.90;83.70
61374;DHT22;47242;48.158;-1.586;2023-12-20T14:05:17;11.80;83.90
61374;DHT22;47242;48.158;-1.586;2023-12-20T14:07:46;11.80;83.70
61374;DHT22;47242;48.158;-1.586;2023-12-20T14:10:13;11.80;83.60
61374;DHT22;47242;48.158;-1.586;2023-12-20T14:12:39;11.70;83.60
61374;DHT22;47242;48.158;-1.586;2023-12-20T14:15:05;11.60;83.70
61374;DHT22;47242;48.158;-1.586;2023-12-20T14:17:37;11.60;83.50
61374;DHT22;47242;48.158;-1.586;2023-12-20T14:20:05;11.60;83.70
61374;DHT22;47242;48.158;-1.586;2023-12-20T14:22:31;11.50;83.90
61374;DHT22;47242;48.158;-1.586;2023-12-20T14:24:57;11.30;84.00
61374;DHT22;47242;48.158;-1.586;2023-12-20T14:27:23;11.30;84.10
61374;DHT22;47242;48.158;-1.586;2023-12-20T14:29:50;11.30;84.40
61374;DHT22;47242;48.158;-1.586;2023-12-20T14:32:15;11.20;84.60
61374;DHT22;47242;48.158;-1.586;2023-12-20T14:34:41;11.30;84.70
61374;DHT22;47242;48.158;-1.586;2023-12-20T14:37:07;11.20;84.80
61374;DHT22;47242;48.158;-1.586;2023-12-20T14:39:33;11.20;84.90
61374;DHT22;47242;48.158;-1.586;2023-12-20T14:41:58;11.20;85.00
61374;DHT22;47242;48.158;-1.586;2023-12-20T14:44:24;11.20;85.20
61374;DHT22;47242;48.158;-1.586;2023-12-20T14:46:50;11.20;85.20
61374;DHT22;47242;48.158;-1.586;2023-12-20T14:49:16;11.20;85.30
61374;DHT22;47242;48.158;-1.586;2023-12-20T14:51:44;11.20;85.30
61374;DHT22;47242;48.158;-1.586;2023-12-20T14:54:10;11.20;85.40
61374;DHT22;47242;48.158;-1.586;2023-12-20T14:56:35;11.20;85.40
61374;DHT22;47242;48.158;-1.586;2023-12-20T14:59:01;11.30;85.40
61374;DHT22;47242;48.158;-1.586;2023-12-20T15:01:27;11.20;85.50
61374;DHT22;47242;48.158;-1.586;2023-12-20T15:03:52;11.20;85.60
61374;DHT22;47242;48.158;-1.586;2023-12-20T15:06:18;11.30;85.60
61374;DHT22;47242;48.158;-1.586;2023-12-20T15:08:45;11.20;85.60
61374;DHT22;47242;48.158;-1.586;2023-12-20T15:11:11;11.20;85.60
61374;DHT22;47242;48.158;-1.586;2023-12-20T15:13:37;11.20;85.50
61374;DHT22;47242;48.158;-1.586;2023-12-20T15:16:03;11.20;85.60
61374;DHT22;47242;48.158;-1.586;2023-12-20T15:18:30;11.20;85.50
61374;DHT22;47242;48.158;-1.586;2023-12-20T15:20:57;11.20;85.50
61374;DHT22;47242;48.158;-1.586;2023-12-20T15:23:23;11.20;85.50
61374;DHT22;47242;48.158;-1.586;2023-12-20T15:25:51;11.20;85.50
61374;DHT22;47242;48.158;-1.586;2023-12-20T15:28:17;11.20;85.40
61374;DHT22;47242;48.158;-1.586;2023-12-20T15:30:43;11.20;85.40
61374;DHT22;47242;48.158;-1.586;2023-12-20T15:33:09;11.30;85.30
61374;DHT22;47242;48.158;-1.586;2023-12-20T15:35:34;11.30;85.20
61374;DHT22;47242;48.158;-1.586;2023-12-20T15:38:00;11.30;85.10
61374;DHT22;47242;48.158;-1.586;2023-12-20T15:40:26;11.30;85.20
61374;DHT22;47242;48.158;-1.586;2023-12-20T15:42:52;11.30;85.30
61374;DHT22;47242;48.158;-1.586;2023-12-20T15:45:18;11.20;85.30
61374;DHT22;47242;48.158;-1.586;2023-12-20T15:47:44;11.30;85.30
61374;DHT22;47242;48.158;-1.586;2023-12-20T15:50:13;11.20;85.40
61374;DHT22;47242;48.158;-1.586;2023-12-20T15:52:38;11.20;85.40
61374;DHT22;47242;48.158;-1.586;2023-12-20T15:55:04;11.20;85.60
61374;DHT22;47242;48.158;-1.586;2023-12-20T15:57:30;11.20;85.70
61374;DHT22;47242;48.158;-1.586;2023-12-20T15:59:55;11.20;85.80
61374;DHT22;47242;48.158;-1.586;2023-12-20T16:02:21;11.20;85.80
61374;DHT22;47242;48.158;-1.586;2023-12-20T16:04:47;11.20;86.00
61374;DHT22;47242;48.158;-1.586;2023-12-20T16:07:13;11.20;86.10
61374;DHT22;47242;48.158;-1.586;2023-12-20T16:09:39;11.20;86.10
61374;DHT22;47242;48.158;-1.586;2023-12-20T16:12:05;11.20;86.20
61374;DHT22;47242;48.158;-1.586;2023-12-20T16:14:30;11.20;86.20
61374;DHT22;47242;48.158;-1.586;2023-12-20T16:16:56;11.20;86.30
61374;DHT22;47242;48.158;-1.586;2023-12-20T16:19:22;11.20;86.40
61374;DHT22;47242;48.158;-1.586;2023-12-20T16:21:47;11.20;86.50
61374;DHT22;47242;48.158;-1.586;2023-12-20T16:24:13;11.20;86.50
61374;DHT22;47242;48.158;-1.586;2023-12-20T16:26:38;11.20;86.70
61374;DHT22;47242;48.158;-1.586;2023-12-20T16:29:04;11.20;86.80
61374;DHT22;47242;48.158;-1.586;2023-12-20T16:31:30;11.10;87.00
61374;DHT22;47242;48.158;-1.586;2023-12-20T16:33:55;11.10;87.30
61374;DHT22;47242;48.158;-1.586;2023-12-20T16:36:21;11.10;87.30
61374;DHT22;47242;48.158;-1.586;2023-12-20T16:38:47;11.10;87.50
61374;DHT22;47242;48.158;-1.586;2023-12-20T16:41:12;11.10;87.60
61374;DHT22;47242;48.158;-1.586;2023-12-20T16:43:38;11.10;87.60
61374;DHT22;47242;48.158;-1.586;2023-12-20T16:46:04;11.10;87.70
61374;DHT22;47242;48.158;-1.586;2023-12-20T16:48:29;11.10;87.70
61374;DHT22;47242;48.158;-1.586;2023-12-20T16:50:55;11.10;87.70
61374;DHT22;47242;48.158;-1.586;2023-12-20T16:53:21;11.20;87.70
61374;DHT22;47242;48.158;-1.586;2023-12-20T16:55:46;11.10;87.70
61374;DHT22;47242;48.158;-1.586;2023-12-20T16:58:12;11.10;87.70
61374;DHT22;47242;48.158;-1.586;2023-12-20T17:00:39;11.10;87.70
61374;DHT22;47242;48.158;-1.586;2023-12-20T17:03:06;11.10;87.90
61374;DHT22;47242;48.158;-1.586;2023-12-20T17:05:32;11.10;87.80
61374;DHT22;47242;48.158;-1.586;2023-12-20T17:07:57;11.00;87.90
61374;DHT22;47242;48.158;-1.586;2023-12-20T17:10:23;11.00;88.10
61374;DHT22;47242;48.158;-1.586;2023-12-20T17:12:49;11.00;88.00
61374;DHT22;47242;48.158;-1.586;2023-12-20T17:15:14;11.00;88.00
61374;DHT22;47242;48.158;-1.586;2023-12-20T17:17:40;11.10;88.00
61374;DHT22;47242;48.158;-1.586;2023-12-20T17:20:06;11.10;88.00
61374;DHT22;47242;48.158;-1.586;2023-12-20T17:22:32;11.10;87.90
61374;DHT22;47242;48.158;-1.586;2023-12-20T17:24:58;11.10;87.90
61374;DHT22;47242;48.158;-1.586;2023-12-20T17:27:23;11.10;87.90
61374;DHT22;47242;48.158;-1.586;2023-12-20T17:29:49;11.10;88.00
61374;DHT22;47242;48.158;-1.586;2023-12-20T17:32:23;11.10;88.10
61374;DHT22;47242;48.158;-1.586;2023-12-20T17:35:08;11.00;88.10
61374;DHT22;47242;48.158;-1.586;2023-12-20T17:37:34;11.00;88.10
61374;DHT22;47242;48.158;-1.586;2023-12-20T17:39:59;11.00;88.10
61374;DHT22;47242;48.158;-1.586;2023-12-20T17:42:25;11.00;88.10
61374;DHT22;47242;48.158;-1.586;2023-12-20T17:44:51;11.00;88.10
61374;DHT22;47242;48.158;-1.586;2023-12-20T17:47:16;11.10;88.20
61374;DHT22;47242;48.158;-1.586;2023-12-20T17:49:42;11.00;88.20
61374;DHT22;47242;48.158;-1.586;2023-12-20T17:52:08;11.00;88.30
61374;DHT22;47242;48.158;-1.586;2023-12-20T17:54:34;11.00;88.20
61374;DHT22;47242;48.158;-1.586;2023-12-20T17:56:59;11.00;88.30
61374;DHT22;47242;48.158;-1.586;2023-12-20T17:59:25;11.00;88.40
61374;DHT22;47242;48.158;-1.586;2023-12-20T18:01:51;11.00;88.40
61374;DHT22;47242;48.158;-1.586;2023-12-20T18:04:17;11.00;88.50
61374;DHT22;47242;48.158;-1.586;2023-12-20T18:06:45;11.00;88.40
61374;DHT22;47242;48.158;-1.586;2023-12-20T18:09:11;11.00;88.40
61374;DHT22;47242;48.158;-1.586;2023-12-20T18:11:37;11.00;88.40
61374;DHT22;47242;48.158;-1.586;2023-12-20T18:14:02;11.00;88.50
61374;DHT22;47242;48.158;-1.586;2023-12-20T18:16:28;11.00;88.50
61374;DHT22;47242;48.158;-1.586;2023-12-20T18:18:53;11.00;88.50
61374;DHT22;47242;48.158;-1.586;2023-12-20T18:21:19;11.00;88.50
61374;DHT22;47242;48.158;-1.586;2023-12-20T18:23:45;10.80;88.60
61374;DHT22;47242;48.158;-1.586;2023-12-20T18:26:10;10.90;88.60
61374;DHT22;47242;48.158;-1.586;2023-12-20T18:28:36;10.90;88.60
61374;DHT22;47242;48.158;-1.586;2023-12-20T18:31:05;10.90;88.70
61374;DHT22;47242;48.158;-1.586;2023-12-20T18:33:31;10.90;88.60
61374;DHT22;47242;48.158;-1.586;2023-12-20T18:36:00;10.90;88.70
61374;DHT22;47242;48.158;-1.586;2023-12-20T18:38:25;10.90;88.60
61374;DHT22;47242;48.158;-1.586;2023-12-20T18:40:56;10.90;88.70
61374;DHT22;47242;48.158;-1.586;2023-12-20T18:43:22;10.80;88.60
61374;DHT22;47242;48.158;-1.586;2023-12-20T18:45:49;10.80;88.70
61374;DHT22;47242;48.158;-1.586;2023-12-20T18:48:14;10.80;88.60
61374;DHT22;47242;48.158;-1.586;2023-12-20T18:50:40;10.80;88.70
61374;DHT22;47242;48.158;-1.586;2023-12-20T18:53:05;10.80;88.50
61374;DHT22;47242;48.158;-1.586;2023-12-20T18:55:31;10.80;88.70
61374;DHT22;47242;48.158;-1.586;2023-12-20T18:57:57;10.80;88.60
61374;DHT22;47242;48.158;-1.586;2023-12-20T19:00:22;10.80;88.60
61374;DHT22;47242;48.158;-1.586;2023-12-20T19:02:48;10.80;88.50
61374;DHT22;47242;48.158;-1.586;2023-12-20T19:05:14;10.80;88.60
61374;DHT22;47242;48.158;-1.586;2023-12-20T19:07:39;10.80;88.60
61374;DHT22;47242;48.158;-1.586;2023-12-20T19:10:05;10.80;88.30
61374;DHT22;47242;48.158;-1.586;2023-12-20T19:12:31;10.80;88.20
61374;DHT22;47242;48.158;-1.586;2023-12-20T19:14:57;10.80;88.20
61374;DHT22;47242;48.158;-1.586;2023-12-20T19:17:22;10.80;88.00
61374;DHT22;47242;48.158;-1.586;2023-12-20T19:19:48;10.80;88.00
61374;DHT22;47242;48.158;-1.586;2023-12-20T19:22:14;10.70;88.20
61374;DHT22;47242;48.158;-1.586;2023-12-20T19:24:40;10.70;88.30
61374;DHT22;47242;48.158;-1.586;2023-12-20T19:27:06;10.80;88.20
61374;DHT22;47242;48.158;-1.586;2023-12-20T19:29:32;10.80;88.30
61374;DHT22;47242;48.158;-1.586;2023-12-20T19:31:58;10.80;88.20
61374;DHT22;47242;48.158;-1.586;2023-12-20T19:34:24;10.80;88.20
61374;DHT22;47242;48.158;-1.586;2023-12-20T19:36:49;10.80;88.30
61374;DHT22;47242;48.158;-1.586;2023-12-20T19:39:15;10.80;88.30
61374;DHT22;47242;48.158;-1.586;2023-12-20T19:41:40;10.80;88.30
61374;DHT22;47242;48.158;-1.586;2023-12-20T19:44:06;10.70;88.30
61374;DHT22;47242;48.158;-1.586;2023-12-20T19:46:33;10.70;88.30
61374;DHT22;47242;48.158;-1.586;2023-12-20T19:48:59;10.70;88.40
61374;DHT22;47242;48.158;-1.586;2023-12-20T19:51:25;10.80;88.40
61374;DHT22;47242;48.158;-1.586;2023-12-20T19:53:51;10.70;88.40
61374;DHT22;47242;48.158;-1.586;2023-12-20T19:56:31;10.70;88.40
61374;DHT22;47242;48.158;-1.586;2023-12-20T19:59:06;10.80;88.40
61374;DHT22;47242;48.158;-1.586;2023-12-20T20:01:32;10.70;88.50
61374;DHT22;47242;48.158;-1.586;2023-12-20T20:04:00;10.70;88.40
61374;DHT22;47242;48.158;-1.586;2023-12-20T20:06:26;10.70;88.50
61374;DHT22;47242;48.158;-1.586;2023-12-20T20:08:51;10.80;88.50
61374;DHT22;47242;48.158;-1.586;2023-12-20T20:11:17;10.70;88.40
61374;DHT22;47242;48.158;-1.586;2023-12-20T20:13:43;10.70;88.40
61374;DHT22;47242;48.158;-1.586;2023-12-20T20:16:09;10.70;88.40
61374;DHT22;47242;48.158;-1.586;2023-12-20T20:18:34;10.70;88.40
61374;DHT22;47242;48.158;-1.586;2023-12-20T20:21:00;10.70;88.50
61374;DHT22;47242;48.158;-1.586;2023-12-20T20:23:25;10.70;88.40
61374;DHT22;47242;48.158;-1.586;2023-12-20T20:25:51;10.60;88.40
61374;DHT22;47242;48.158;-1.586;2023-12-20T20:28:17;10.60;88.50
61374;DHT22;47242;48.158;-1.586;2023-12-20T20:30:42;10.70;88.50
61374;DHT22;47242;48.158;-1.586;2023-12-20T20:33:08;10.70;88.50
61374;DHT22;47242;48.158;-1.586;2023-12-20T20:35:33;10.70;88.50
61374;DHT22;47242;48.158;-1.586;2023-12-20T20:37:59;10.70;88.50
61374;DHT22;47242;48.158;-1.586;2023-12-20T20:40:24;10.60;88.50
61374;DHT22;47242;48.158;-1.586;2023-12-20T20:42:50;10.60;88.60
61374;DHT22;47242;48.158;-1.586;2023-12-20T20:45:16;10.70;88.70
61374;DHT22;47242;48.158;-1.586;2023-12-20T20:47:43;10.70;88.60
61374;DHT22;47242;48.158;-1.586;2023-12-20T20:50:09;10.70;88.60